sensor_id;sensor_type;location;lat;lon;timestamp;P1;durP1;ratioP1;P2;durP2;ratioP2
7231;SDS011;3657;49.630;11.018;2022-11-23T00:00:15;8.47;;;7.80;;
7231;SDS011;3657;49.630;11.018;2022-11-23T00:02:42;7.60;;;7.30;;
7231;SDS011;3657;49.630;11.018;2022-11-23T00:05:09;7.07;;;6.77;;
7231;SDS011;3657;49.630;11.018;2022-11-23T00:07:35;7.60;;;6.97;;
7231;SDS011;3657;49.630;11.018;2022-11-23T00:10:02;6.97;;;6.47;;
7231;SDS011;3657;49.630;11.018;2022-11-23T00:12:31;6.70;;;6.30;;
7231;SDS011;3657;49.630;11.018;2022-11-23T00:14:58;7.57;;;6.97;;
7231;SDS011;3657;49.630;11.018;2022-11-23T00:17:25;7.13;;;6.73;;
7231;SDS011;3657;49.630;11.018;2022-11-23T00:19:51;6.53;;;6.20;;
7231;SDS011;3657;49.630;11.018;2022-11-23T00:22:18;6.80;;;6.40;;
7231;SDS011;3657;49.630;11.018;2022-11-23T00:24:46;6.30;;;6.00;;
7231;SDS011;3657;49.630;11.018;2022-11-23T00:27:12;6.37;;;6.07;;
7231;SDS011;3657;49.630;11.018;2022-11-23T00:29:40;7.07;;;6.47;;
7231;SDS011;3657;49.630;11.018;2022-11-23T00:32:07;6.07;;;5.73;;
7231;SDS011;3657;49.630;11.018;2022-11-23T00:34:34;5.97;;;5.47;;
7231;SDS011;3657;49.630;11.018;2022-11-23T00:37:01;6.17;;;5.77;;
7231;SDS011;3657;49.630;11.018;2022-11-23T00:39:27;6.70;;;6.20;;
7231;SDS011;3657;49.630;11.018;2022-11-23T00:41:54;6.50;;;6.20;;
7231;SDS011;3657;49.630;11.018;2022-11-23T00:44:21;6.80;;;6.40;;
7231;SDS011;3657;49.630;11.018;2022-11-23T00:46:49;7.43;;;6.80;;
7231;SDS011;3657;49.630;11.018;2022-11-23T00:49:16;6.13;;;5.93;;
7231;SDS011;3657;49.630;11.018;2022-11-23T00:51:42;6.20;;;5.87;;
7231;SDS011;3657;49.630;11.018;2022-11-23T00:54:09;6.97;;;6.50;;
7231;SDS011;3657;49.630;11.018;2022-11-23T00:56:37;8.00;;;7.27;;
7231;SDS011;3657;49.630;11.018;2022-11-23T00:59:03;5.77;;;5.53;;
7231;SDS011;3657;49.630;11.018;2022-11-23T01:01:31;6.77;;;6.27;;
7231;SDS011;3657;49.630;11.018;2022-11-23T01:04:03;6.37;;;6.07;;
7231;SDS011;3657;49.630;11.018;2022-11-23T01:06:32;6.33;;;5.93;;
7231;SDS011;3657;49.630;11.018;2022-11-23T01:09:02;6.30;;;6.00;;
7231;SDS011;3657;49.630;11.018;2022-11-23T01:11:30;5.80;;;5.60;;
7231;SDS011;3657;49.630;11.018;2022-11-23T01:13:57;6.23;;;5.87;;
7231;SDS011;3657;49.630;11.018;2022-11-23T01:16:25;7.07;;;6.33;;
7231;SDS011;3657;49.630;11.018;2022-11-23T01:18:53;6.83;;;6.33;;
7231;SDS011;3657;49.630;11.018;2022-11-23T01:21:22;6.33;;;6.03;;
7231;SDS011;3657;49.630;11.018;2022-11-23T01:23:49;6.17;;;5.67;;
7231;SDS011;3657;49.630;11.018;2022-11-23T01:26:16;6.53;;;6.23;;
7231;SDS011;3657;49.630;11.018;2022-11-23T01:28:43;6.50;;;6.17;;
7231;SDS011;3657;49.630;11.018;2022-11-23T01:31:10;5.27;;;5.07;;
7231;SDS011;3657;49.630;11.018;2022-11-23T01:33:38;5.97;;;5.67;;
7231;SDS011;3657;49.630;11.018;2022-11-23T01:36:10;6.93;;;6.53;;
7231;SDS011;3657;49.630;11.018;2022-11-23T01:38:39;6.87;;;6.57;;
7231;SDS011;3657;49.630;11.018;2022-11-23T01:41:06;6.33;;;5.93;;
7231;SDS011;3657;49.630;11.018;2022-11-23T01:43:33;7.13;;;6.73;;
7231;SDS011;3657;49.630;11.018;2022-11-23T01:46:00;6.10;;;5.80;;
7231;SDS011;3657;49.630;11.018;2022-11-23T01:48:29;6.37;;;6.07;;
7231;SDS011;3657;49.630;11.018;2022-11-23T01:50:59;6.73;;;6.13;;
7231;SDS011;3657;49.630;11.018;2022-11-23T01:53:29;6.70;;;6.40;;
7231;SDS011;3657;49.630;11.018;2022-11-23T01:55:59;6.40;;;6.10;;
7231;SDS011;3657;49.630;11.018;2022-11-23T01:58:29;7.50;;;6.87;;
7231;SDS011;3657;49.630;11.018;2022-11-23T02:01:00;6.60;;;6.30;;
7231;SDS011;3657;49.630;11.018;2022-11-23T02:03:27;6.93;;;6.53;;
7231;SDS011;3657;49.630;11.018;2022-11-23T02:05:58;7.57;;;6.90;;
7231;SDS011;3657;49.630;11.018;2022-11-23T02:08:28;7.27;;;6.83;;
7231;SDS011;3657;49.630;11.018;2022-11-23T02:10:56;5.93;;;5.70;;
7231;SDS011;3657;49.630;11.018;2022-11-23T02:13:26;6.37;;;5.97;;
7231;SDS011;3657;49.630;11.018;2022-11-23T02:15:54;7.67;;;6.60;;
7231;SDS011;3657;49.630;11.018;2022-11-23T02:18:23;7.43;;;7.00;;
7231;SDS011;3657;49.630;11.018;2022-11-23T02:20:51;5.80;;;5.60;;
7231;SDS011;3657;49.630;11.018;2022-11-23T02:23:21;6.07;;;5.80;;
7231;SDS011;3657;49.630;11.018;2022-11-23T02:25:58;7.07;;;6.67;;
7231;SDS011;3657;49.630;11.018;2022-11-23T02:28:28;7.20;;;6.67;;
7231;SDS011;3657;49.630;11.018;2022-11-23T02:30:58;6.67;;;6.37;;
7231;SDS011;3657;49.630;11.018;2022-11-23T02:33:26;6.03;;;5.73;;
7231;SDS011;3657;49.630;11.018;2022-11-23T02:35:53;6.47;;;5.97;;
7231;SDS011;3657;49.630;11.018;2022-11-23T02:38:22;6.77;;;6.47;;
7231;SDS011;3657;49.630;11.018;2022-11-23T02:40:51;6.83;;;6.53;;
7231;SDS011;3657;49.630;11.018;2022-11-23T02:43:19;6.20;;;6.00;;
7231;SDS011;3657;49.630;11.018;2022-11-23T02:45:46;6.27;;;5.97;;
7231;SDS011;3657;49.630;11.018;2022-11-23T02:48:16;5.67;;;5.47;;
7231;SDS011;3657;49.630;11.018;2022-11-23T02:50:43;6.10;;;5.80;;
7231;SDS011;3657;49.630;11.018;2022-11-23T02:53:10;6.67;;;6.33;;
7231;SDS011;3657;49.630;11.018;2022-11-23T02:55:37;7.70;;;7.07;;
7231;SDS011;3657;49.630;11.018;2022-11-23T02:58:04;6.67;;;6.37;;
7231;SDS011;3657;49.630;11.018;2022-11-23T03:00:33;6.67;;;6.10;;
7231;SDS011;3657;49.630;11.018;2022-11-23T03:03:00;7.03;;;6.60;;
7231;SDS011;3657;49.630;11.018;2022-11-23T03:05:28;7.00;;;6.50;;
7231;SDS011;3657;49.630;11.018;2022-11-23T03:07:55;6.83;;;6.40;;
7231;SDS011;3657;49.630;11.018;2022-11-23T03:10:21;6.67;;;6.37;;
7231;SDS011;3657;49.630;11.018;2022-11-23T03:12:48;6.70;;;6.40;;
7231;SDS011;3657;49.630;11.018;2022-11-23T03:15:18;7.27;;;6.87;;
7231;SDS011;3657;49.630;11.018;2022-11-23T03:17:46;6.53;;;6.23;;
7231;SDS011;3657;49.630;11.018;2022-11-23T03:20:13;6.73;;;6.43;;
7231;SDS011;3657;49.630;11.018;2022-11-23T03:22:40;6.77;;;6.47;;
7231;SDS011;3657;49.630;11.018;2022-11-23T03:25:07;6.60;;;6.27;;
7231;SDS011;3657;49.630;11.018;2022-11-23T03:27:34;7.53;;;6.83;;
7231;SDS011;3657;49.630;11.018;2022-11-23T03:30:02;7.23;;;6.83;;
7231;SDS011;3657;49.630;11.018;2022-11-23T03:32:30;6.90;;;6.60;;
7231;SDS011;3657;49.630;11.018;2022-11-23T03:34:58;7.07;;;6.57;;
7231;SDS011;3657;49.630;11.018;2022-11-23T03:37:24;6.43;;;5.93;;
7231;SDS011;3657;49.630;11.018;2022-11-23T03:39:51;6.77;;;6.37;;
7231;SDS011;3657;49.630;11.018;2022-11-23T03:42:18;6.63;;;6.30;;
7231;SDS011;3657;49.630;11.018;2022-11-23T03:44:44;6.67;;;6.27;;
7231;SDS011;3657;49.630;11.018;2022-11-23T03:47:11;7.70;;;7.00;;
7231;SDS011;3657;49.630;11.018;2022-11-23T03:49:38;7.10;;;6.67;;
7231;SDS011;3657;49.630;11.018;2022-11-23T03:52:06;5.83;;;5.43;;
7231;SDS011;3657;49.630;11.018;2022-11-23T03:54:33;6.13;;;5.83;;
7231;SDS011;3657;49.630;11.018;2022-11-23T03:56:59;6.63;;;6.33;;
7231;SDS011;3657;49.630;11.018;2022-11-23T03:59:26;6.73;;;6.43;;
7231;SDS011;3657;49.630;11.018;2022-11-23T04:01:53;5.57;;;5.20;;
7231;SDS011;3657;49.630;11.018;2022-11-23T04:04:19;6.87;;;6.57;;
7231;SDS011;3657;49.630;11.018;2022-11-23T04:06:46;6.10;;;5.80;;
7231;SDS011;3657;49.630;11.018;2022-11-23T04:09:14;6.73;;;6.33;;
7231;SDS011;3657;49.630;11.018;2022-11-23T04:11:41;6.23;;;6.03;;
7231;SDS011;3657;49.630;11.018;2022-11-23T04:14:08;6.57;;;6.17;;
7231;SDS011;3657;49.630;11.018;2022-11-23T04:16:34;7.30;;;7.00;;
7231;SDS011;3657;49.630;11.018;2022-11-23T04:19:01;7.07;;;6.57;;
7231;SDS011;3657;49.630;11.018;2022-11-23T04:21:28;6.57;;;6.27;;
7231;SDS011;3657;49.630;11.018;2022-11-23T04:23:55;6.87;;;6.57;;
7231;SDS011;3657;49.630;11.018;2022-11-23T04:26:23;6.30;;;6.07;;
7231;SDS011;3657;49.630;11.018;2022-11-23T04:28:49;5.70;;;5.50;;
7231;SDS011;3657;49.630;11.018;2022-11-23T04:31:16;6.53;;;6.13;;
7231;SDS011;3657;49.630;11.018;2022-11-23T04:33:43;6.73;;;6.33;;
7231;SDS011;3657;49.630;11.018;2022-11-23T04:36:09;6.20;;;5.90;;
7231;SDS011;3657;49.630;11.018;2022-11-23T04:38:36;6.37;;;6.07;;
7231;SDS011;3657;49.630;11.018;2022-11-23T04:41:03;6.60;;;6.03;;
7231;SDS011;3657;49.630;11.018;2022-11-23T04:43:31;6.40;;;6.10;;
7231;SDS011;3657;49.630;11.018;2022-11-23T04:45:58;5.27;;;5.07;;
7231;SDS011;3657;49.630;11.018;2022-11-23T04:48:24;5.90;;;5.60;;
7231;SDS011;3657;49.630;11.018;2022-11-23T04:50:51;7.53;;;6.80;;
7231;SDS011;3657;49.630;11.018;2022-11-23T04:53:18;6.60;;;6.13;;
7231;SDS011;3657;49.630;11.018;2022-11-23T04:55:45;6.67;;;6.27;;
7231;SDS011;3657;49.630;11.018;2022-11-23T04:58:12;5.47;;;5.27;;
7231;SDS011;3657;49.630;11.018;2022-11-23T05:00:40;6.67;;;6.17;;
7231;SDS011;3657;49.630;11.018;2022-11-23T05:03:07;6.00;;;5.80;;
7231;SDS011;3657;49.630;11.018;2022-11-23T05:05:35;6.17;;;5.87;;
7231;SDS011;3657;49.630;11.018;2022-11-23T05:08:02;6.67;;;6.27;;
7231;SDS011;3657;49.630;11.018;2022-11-23T05:10:29;6.77;;;6.40;;
7231;SDS011;3657;49.630;11.018;2022-11-23T05:12:56;7.57;;;7.17;;
7231;SDS011;3657;49.630;11.018;2022-11-23T05:15:23;6.87;;;6.57;;
7231;SDS011;3657;49.630;11.018;2022-11-23T05:17:51;6.80;;;6.40;;
7231;SDS011;3657;49.630;11.018;2022-11-23T05:20:18;6.03;;;5.73;;
7231;SDS011;3657;49.630;11.018;2022-11-23T05:22:45;6.23;;;5.83;;
7231;SDS011;3657;49.630;11.018;2022-11-23T05:25:12;6.87;;;6.63;;
7231;SDS011;3657;49.630;11.018;2022-11-23T05:27:38;7.03;;;6.60;;
7231;SDS011;3657;49.630;11.018;2022-11-23T05:30:06;8.00;;;7.33;;
7231;SDS011;3657;49.630;11.018;2022-11-23T05:32:33;6.60;;;6.03;;
7231;SDS011;3657;49.630;11.018;2022-11-23T05:35:01;8.97;;;7.90;;
7231;SDS011;3657;49.630;11.018;2022-11-23T05:37:29;7.63;;;7.10;;
7231;SDS011;3657;49.630;11.018;2022-11-23T05:39:55;6.20;;;5.90;;
7231;SDS011;3657;49.630;11.018;2022-11-23T05:42:22;6.27;;;5.97;;
7231;SDS011;3657;49.630;11.018;2022-11-23T05:44:49;6.83;;;6.53;;
7231;SDS011;3657;49.630;11.018;2022-11-23T05:47:15;6.23;;;6.03;;
7231;SDS011;3657;49.630;11.018;2022-11-23T05:49:42;6.80;;;6.20;;
7231;SDS011;3657;49.630;11.018;2022-11-23T05:52:10;5.87;;;5.67;;
7231;SDS011;3657;49.630;11.018;2022-11-23T05:54:37;4.83;;;4.53;;
7231;SDS011;3657;49.630;11.018;2022-11-23T05:57:04;5.93;;;5.63;;
7231;SDS011;3657;49.630;11.018;2022-11-23T05:59:30;6.03;;;5.63;;
7231;SDS011;3657;49.630;11.018;2022-11-23T06:01:57;5.77;;;5.57;;
7231;SDS011;3657;49.630;11.018;2022-11-23T06:04:24;5.50;;;5.27;;
7231;SDS011;3657;49.630;11.018;2022-11-23T06:06:51;5.97;;;5.67;;
7231;SDS011;3657;49.630;11.018;2022-11-23T06:09:21;7.93;;;7.30;;
7231;SDS011;3657;49.630;11.018;2022-11-23T06:11:47;8.80;;;8.40;;
7231;SDS011;3657;49.630;11.018;2022-11-23T06:14:14;12.13;;;11.23;;
7231;SDS011;3657;49.630;11.018;2022-11-23T06:16:41;9.13;;;8.47;;
7231;SDS011;3657;49.630;11.018;2022-11-23T06:19:08;7.07;;;6.77;;
7231;SDS011;3657;49.630;11.018;2022-11-23T06:21:34;6.97;;;6.67;;
7231;SDS011;3657;49.630;11.018;2022-11-23T06:24:01;8.10;;;7.30;;
7231;SDS011;3657;49.630;11.018;2022-11-23T06:26:29;6.47;;;6.17;;
7231;SDS011;3657;49.630;11.018;2022-11-23T06:28:56;6.90;;;6.50;;
7231;SDS011;3657;49.630;11.018;2022-11-23T06:31:23;8.20;;;7.37;;
7231;SDS011;3657;49.630;11.018;2022-11-23T06:33:50;7.20;;;6.60;;
7231;SDS011;3657;49.630;11.018;2022-11-23T06:36:17;7.30;;;6.80;;
7231;SDS011;3657;49.630;11.018;2022-11-23T06:38:44;6.97;;;6.67;;
7231;SDS011;3657;49.630;11.018;2022-11-23T06:41:10;7.30;;;6.70;;
7231;SDS011;3657;49.630;11.018;2022-11-23T06:43:38;9.63;;;6.53;;
7231;SDS011;3657;49.630;11.018;2022-11-23T06:46:05;6.67;;;6.30;;
7231;SDS011;3657;49.630;11.018;2022-11-23T06:48:32;8.30;;;6.80;;
7231;SDS011;3657;49.630;11.018;2022-11-23T06:50:59;7.77;;;7.27;;
7231;SDS011;3657;49.630;11.018;2022-11-23T06:53:26;10.20;;;9.57;;
7231;SDS011;3657;49.630;11.018;2022-11-23T06:55:56;10.30;;;9.40;;
7231;SDS011;3657;49.630;11.018;2022-11-23T06:58:24;8.63;;;7.93;;
7231;SDS011;3657;49.630;11.018;2022-11-23T07:00:52;9.67;;;8.87;;
7231;SDS011;3657;49.630;11.018;2022-11-23T07:03:20;10.17;;;9.57;;
7231;SDS011;3657;49.630;11.018;2022-11-23T07:05:48;9.83;;;9.27;;
7231;SDS011;3657;49.630;11.018;2022-11-23T07:08:15;9.57;;;8.97;;
7231;SDS011;3657;49.630;11.018;2022-11-23T07:10:41;7.63;;;7.23;;
7231;SDS011;3657;49.630;11.018;2022-11-23T07:13:08;6.90;;;6.40;;
7231;SDS011;3657;49.630;11.018;2022-11-23T07:15:35;8.47;;;7.77;;
7231;SDS011;3657;49.630;11.018;2022-11-23T07:18:04;8.47;;;7.77;;
7231;SDS011;3657;49.630;11.018;2022-11-23T07:20:32;8.50;;;7.47;;
7231;SDS011;3657;49.630;11.018;2022-11-23T07:22:59;7.37;;;7.07;;
7231;SDS011;3657;49.630;11.018;2022-11-23T07:25:26;8.07;;;7.27;;
7231;SDS011;3657;49.630;11.018;2022-11-23T07:27:53;7.93;;;7.23;;
7231;SDS011;3657;49.630;11.018;2022-11-23T07:30:21;6.70;;;6.40;;
7231;SDS011;3657;49.630;11.018;2022-11-23T07:32:47;6.80;;;6.50;;
7231;SDS011;3657;49.630;11.018;2022-11-23T07:35:16;7.83;;;7.53;;
7231;SDS011;3657;49.630;11.018;2022-11-23T07:37:43;7.33;;;6.67;;
7231;SDS011;3657;49.630;11.018;2022-11-23T07:40:10;8.90;;;8.00;;
7231;SDS011;3657;49.630;11.018;2022-11-23T07:42:37;8.30;;;7.90;;
7231;SDS011;3657;49.630;11.018;2022-11-23T07:45:05;8.60;;;8.20;;
7231;SDS011;3657;49.630;11.018;2022-11-23T07:47:33;7.80;;;7.07;;
7231;SDS011;3657;49.630;11.018;2022-11-23T07:50:00;11.23;;;6.60;;
7231;SDS011;3657;49.630;11.018;2022-11-23T07:52:28;7.70;;;7.30;;
7231;SDS011;3657;49.630;11.018;2022-11-23T07:54:54;7.67;;;7.27;;
7231;SDS011;3657;49.630;11.018;2022-11-23T07:57:21;7.70;;;7.30;;
7231;SDS011;3657;49.630;11.018;2022-11-23T07:59:48;7.20;;;6.90;;
7231;SDS011;3657;49.630;11.018;2022-11-23T08:02:15;6.70;;;6.50;;
7231;SDS011;3657;49.630;11.018;2022-11-23T08:04:41;7.00;;;6.70;;
7231;SDS011;3657;49.630;11.018;2022-11-23T08:07:08;7.83;;;7.43;;
7231;SDS011;3657;49.630;11.018;2022-11-23T08:09:36;16.33;;;9.63;;
7231;SDS011;3657;49.630;11.018;2022-11-23T08:12:03;10.13;;;7.47;;
7231;SDS011;3657;49.630;11.018;2022-11-23T08:14:30;7.70;;;7.10;;
7231;SDS011;3657;49.630;11.018;2022-11-23T08:16:57;8.33;;;7.70;;
7231;SDS011;3657;49.630;11.018;2022-11-23T08:19:24;7.87;;;7.30;;
7231;SDS011;3657;49.630;11.018;2022-11-23T08:21:50;10.67;;;7.77;;
7231;SDS011;3657;49.630;11.018;2022-11-23T08:24:17;7.67;;;6.93;;
7231;SDS011;3657;49.630;11.018;2022-11-23T08:26:45;7.23;;;6.63;;
7231;SDS011;3657;49.630;11.018;2022-11-23T08:29:12;7.17;;;6.77;;
7231;SDS011;3657;49.630;11.018;2022-11-23T08:31:51;7.80;;;7.10;;
7231;SDS011;3657;49.630;11.018;2022-11-23T08:34:18;8.10;;;6.80;;
7231;SDS011;3657;49.630;11.018;2022-11-23T08:36:44;7.27;;;6.57;;
7231;SDS011;3657;49.630;11.018;2022-11-23T08:39:12;6.67;;;6.37;;
7231;SDS011;3657;49.630;11.018;2022-11-23T08:41:39;6.67;;;6.23;;
7231;SDS011;3657;49.630;11.018;2022-11-23T08:44:07;6.60;;;6.10;;
7231;SDS011;3657;49.630;11.018;2022-11-23T08:46:36;6.50;;;6.13;;
7231;SDS011;3657;49.630;11.018;2022-11-23T08:49:03;6.77;;;6.37;;
7231;SDS011;3657;49.630;11.018;2022-11-23T08:51:31;6.80;;;6.50;;
7231;SDS011;3657;49.630;11.018;2022-11-23T08:53:58;7.07;;;6.77;;
7231;SDS011;3657;49.630;11.018;2022-11-23T08:56:25;6.97;;;6.67;;
7231;SDS011;3657;49.630;11.018;2022-11-23T08:58:51;6.53;;;6.23;;
7231;SDS011;3657;49.630;11.018;2022-11-23T09:01:19;6.77;;;6.37;;
7231;SDS011;3657;49.630;11.018;2022-11-23T09:03:46;6.60;;;6.10;;
7231;SDS011;3657;49.630;11.018;2022-11-23T09:06:13;6.73;;;6.43;;
7231;SDS011;3657;49.630;11.018;2022-11-23T09:08:39;6.10;;;5.80;;
7231;SDS011;3657;49.630;11.018;2022-11-23T09:11:08;6.73;;;6.27;;
7231;SDS011;3657;49.630;11.018;2022-11-23T09:13:37;7.20;;;6.80;;
7231;SDS011;3657;49.630;11.018;2022-11-23T09:16:05;6.87;;;6.47;;
7231;SDS011;3657;49.630;11.018;2022-11-23T09:18:34;6.33;;;5.83;;
7231;SDS011;3657;49.630;11.018;2022-11-23T09:21:01;7.67;;;7.17;;
7231;SDS011;3657;49.630;11.018;2022-11-23T09:23:29;7.70;;;7.13;;
7231;SDS011;3657;49.630;11.018;2022-11-23T09:25:56;7.13;;;6.80;;
7231;SDS011;3657;49.630;11.018;2022-11-23T09:28:23;6.57;;;6.17;;
7231;SDS011;3657;49.630;11.018;2022-11-23T09:30:51;7.73;;;7.03;;
7231;SDS011;3657;49.630;11.018;2022-11-23T09:33:19;7.67;;;6.97;;
7231;SDS011;3657;49.630;11.018;2022-11-23T09:35:53;6.43;;;5.83;;
7231;SDS011;3657;49.630;11.018;2022-11-23T09:38:22;6.77;;;6.37;;
7231;SDS011;3657;49.630;11.018;2022-11-23T09:40:48;7.60;;;6.97;;
7231;SDS011;3657;49.630;11.018;2022-11-23T09:43:30;8.03;;;7.50;;
7231;SDS011;3657;49.630;11.018;2022-11-23T09:46:10;8.00;;;7.23;;
7231;SDS011;3657;49.630;11.018;2022-11-23T09:48:48;6.57;;;6.07;;
7231;SDS011;3657;49.630;11.018;2022-11-23T09:51:29;6.77;;;6.40;;
7231;SDS011;3657;49.630;11.018;2022-11-23T09:53:57;5.73;;;5.53;;
7231;SDS011;3657;49.630;11.018;2022-11-23T09:56:28;7.23;;;6.73;;
7231;SDS011;3657;49.630;11.018;2022-11-23T09:58:59;6.03;;;5.77;;
7231;SDS011;3657;49.630;11.018;2022-11-23T10:01:30;6.63;;;6.33;;
7231;SDS011;3657;49.630;11.018;2022-11-23T10:03:57;7.93;;;7.40;;
7231;SDS011;3657;49.630;11.018;2022-11-23T10:06:24;7.23;;;6.87;;
7231;SDS011;3657;49.630;11.018;2022-11-23T10:09:08;6.30;;;5.90;;
7231;SDS011;3657;49.630;11.018;2022-11-23T10:11:52;11.07;;;10.23;;
7231;SDS011;3657;49.630;11.018;2022-11-23T10:14:34;8.77;;;8.17;;
7231;SDS011;3657;49.630;11.018;2022-11-23T10:17:14;8.43;;;8.03;;
7231;SDS011;3657;49.630;11.018;2022-11-23T10:19:51;8.37;;;7.77;;
7231;SDS011;3657;49.630;11.018;2022-11-23T10:22:29;7.73;;;7.33;;
7231;SDS011;3657;49.630;11.018;2022-11-23T10:25:07;8.13;;;7.83;;
7231;SDS011;3657;49.630;11.018;2022-11-23T10:27:40;7.33;;;6.93;;
7231;SDS011;3657;49.630;11.018;2022-11-23T10:30:10;6.30;;;5.83;;
7231;SDS011;3657;49.630;11.018;2022-11-23T10:32:40;6.10;;;5.83;;
7231;SDS011;3657;49.630;11.018;2022-11-23T10:35:11;6.63;;;6.23;;
7231;SDS011;3657;49.630;11.018;2022-11-23T10:37:39;6.03;;;5.73;;
7231;SDS011;3657;49.630;11.018;2022-11-23T10:40:10;5.67;;;5.43;;
7231;SDS011;3657;49.630;11.018;2022-11-23T10:42:43;6.07;;;5.70;;
7231;SDS011;3657;49.630;11.018;2022-11-23T10:45:17;5.97;;;5.67;;
7231;SDS011;3657;49.630;11.018;2022-11-23T10:47:48;6.37;;;6.07;;
7231;SDS011;3657;49.630;11.018;2022-11-23T10:50:23;6.37;;;6.07;;
7231;SDS011;3657;49.630;11.018;2022-11-23T10:52:54;6.07;;;5.87;;
7231;SDS011;3657;49.630;11.018;2022-11-23T10:55:27;5.47;;;5.07;;
7231;SDS011;3657;49.630;11.018;2022-11-23T10:57:55;5.13;;;4.93;;
7231;SDS011;3657;49.630;11.018;2022-11-23T11:00:23;6.17;;;5.57;;
7231;SDS011;3657;49.630;11.018;2022-11-23T11:02:51;5.70;;;5.40;;
7231;SDS011;3657;49.630;11.018;2022-11-23T11:05:22;5.97;;;5.47;;
7231;SDS011;3657;49.630;11.018;2022-11-23T11:07:51;5.30;;;5.10;;
7231;SDS011;3657;49.630;11.018;2022-11-23T11:10:33;5.87;;;5.63;;
7231;SDS011;3657;49.630;11.018;2022-11-23T11:13:03;5.67;;;5.23;;
7231;SDS011;3657;49.630;11.018;2022-11-23T11:15:51;5.73;;;5.47;;
7231;SDS011;3657;49.630;11.018;2022-11-23T11:18:19;6.27;;;5.90;;
7231;SDS011;3657;49.630;11.018;2022-11-23T11:20:46;6.83;;;6.30;;
7231;SDS011;3657;49.630;11.018;2022-11-23T11:23:20;5.77;;;5.47;;
7231;SDS011;3657;49.630;11.018;2022-11-23T11:25:49;8.37;;;7.47;;
7231;SDS011;3657;49.630;11.018;2022-11-23T11:28:31;6.43;;;5.83;;
7231;SDS011;3657;49.630;11.018;2022-11-23T11:31:02;5.93;;;5.57;;
7231;SDS011;3657;49.630;11.018;2022-11-23T11:33:44;6.07;;;5.77;;
7231;SDS011;3657;49.630;11.018;2022-11-23T11:36:17;4.83;;;4.63;;
7231;SDS011;3657;49.630;11.018;2022-11-23T11:38:45;5.20;;;5.00;;
7231;SDS011;3657;49.630;11.018;2022-11-23T11:41:15;4.57;;;4.37;;
7231;SDS011;3657;49.630;11.018;2022-11-23T11:43:49;5.90;;;5.53;;
7231;SDS011;3657;49.630;11.018;2022-11-23T11:46:20;6.90;;;6.40;;
7231;SDS011;3657;49.630;11.018;2022-11-23T11:48:50;6.33;;;6.03;;
7231;SDS011;3657;49.630;11.018;2022-11-23T11:51:21;6.33;;;6.03;;
7231;SDS011;3657;49.630;11.018;2022-11-23T11:53:52;7.53;;;7.00;;
7231;SDS011;3657;49.630;11.018;2022-11-23T11:56:26;7.37;;;6.93;;
7231;SDS011;3657;49.630;11.018;2022-11-23T11:58:56;6.83;;;6.43;;
7231;SDS011;3657;49.630;11.018;2022-11-23T12:01:31;7.47;;;6.73;;
7231;SDS011;3657;49.630;11.018;2022-11-23T12:04:04;6.77;;;6.43;;
7231;SDS011;3657;49.630;11.018;2022-11-23T12:06:38;6.30;;;6.07;;
7231;SDS011;3657;49.630;11.018;2022-11-23T12:09:10;6.50;;;6.00;;
7231;SDS011;3657;49.630;11.018;2022-11-23T12:11:42;6.53;;;6.23;;
7231;SDS011;3657;49.630;11.018;2022-11-23T12:14:10;6.60;;;6.30;;
7231;SDS011;3657;49.630;11.018;2022-11-23T12:16:41;5.47;;;5.27;;
7231;SDS011;3657;49.630;11.018;2022-11-23T12:19:17;4.47;;;4.27;;
7231;SDS011;3657;49.630;11.018;2022-11-23T12:21:59;4.60;;;4.30;;
7231;SDS011;3657;49.630;11.018;2022-11-23T12:24:36;4.90;;;4.70;;
7231;SDS011;3657;49.630;11.018;2022-11-23T12:27:16;5.33;;;5.07;;
7231;SDS011;3657;49.630;11.018;2022-11-23T12:29:57;5.57;;;5.27;;
7231;SDS011;3657;49.630;11.018;2022-11-23T12:32:40;5.53;;;5.03;;
7231;SDS011;3657;49.630;11.018;2022-11-23T12:35:20;4.90;;;4.50;;
7231;SDS011;3657;49.630;11.018;2022-11-23T12:38:01;5.40;;;5.03;;
7231;SDS011;3657;49.630;11.018;2022-11-23T12:40:39;5.07;;;4.77;;
7231;SDS011;3657;49.630;11.018;2022-11-23T12:43:21;5.70;;;5.40;;
7231;SDS011;3657;49.630;11.018;2022-11-23T12:45:55;5.43;;;5.17;;
7231;SDS011;3657;49.630;11.018;2022-11-23T12:48:36;5.23;;;4.93;;
7231;SDS011;3657;49.630;11.018;2022-11-23T12:51:17;5.03;;;4.73;;
7231;SDS011;3657;49.630;11.018;2022-11-23T12:53:51;5.00;;;4.80;;
7231;SDS011;3657;49.630;11.018;2022-11-23T12:56:31;5.77;;;5.37;;
7231;SDS011;3657;49.630;11.018;2022-11-23T12:59:12;6.13;;;5.80;;
7231;SDS011;3657;49.630;11.018;2022-11-23T13:01:40;5.03;;;4.83;;
7231;SDS011;3657;49.630;11.018;2022-11-23T13:04:20;5.83;;;5.53;;
7231;SDS011;3657;49.630;11.018;2022-11-23T13:07:05;4.97;;;4.77;;
7231;SDS011;3657;49.630;11.018;2022-11-23T13:10:08;5.00;;;4.70;;
7231;SDS011;3657;49.630;11.018;2022-11-23T13:12:52;6.00;;;5.53;;
7231;SDS011;3657;49.630;11.018;2022-11-23T13:15:36;6.03;;;5.73;;
7231;SDS011;3657;49.630;11.018;2022-11-23T13:18:17;6.80;;;6.40;;
7231;SDS011;3657;49.630;11.018;2022-11-23T13:21:01;5.67;;;5.37;;
7231;SDS011;3657;49.630;11.018;2022-11-23T13:23:39;6.93;;;6.63;;
7231;SDS011;3657;49.630;11.018;2022-11-23T13:26:12;6.57;;;6.13;;
7231;SDS011;3657;49.630;11.018;2022-11-23T13:28:41;6.57;;;6.20;;
7231;SDS011;3657;49.630;11.018;2022-11-23T13:31:18;5.80;;;5.40;;
7231;SDS011;3657;49.630;11.018;2022-11-23T13:33:48;6.27;;;5.70;;
7231;SDS011;3657;49.630;11.018;2022-11-23T13:42:24;6.57;;;6.03;;
7231;SDS011;3657;49.630;11.018;2022-11-23T13:48:09;4.63;;;4.43;;
7231;SDS011;3657;49.630;11.018;2022-11-23T13:50:53;5.30;;;5.00;;
7231;SDS011;3657;49.630;11.018;2022-11-23T13:53:23;4.00;;;3.90;;
7231;SDS011;3657;49.630;11.018;2022-11-23T13:55:53;4.70;;;4.50;;
7231;SDS011;3657;49.630;11.018;2022-11-23T14:01:05;4.37;;;4.17;;
7231;SDS011;3657;49.630;11.018;2022-11-23T14:06:44;4.53;;;4.10;;
7231;SDS011;3657;49.630;11.018;2022-11-23T14:09:16;5.00;;;4.70;;
7231;SDS011;3657;49.630;11.018;2022-11-23T14:11:57;5.50;;;5.10;;
7231;SDS011;3657;49.630;11.018;2022-11-23T14:14:30;4.80;;;4.60;;
7231;SDS011;3657;49.630;11.018;2022-11-23T14:17:25;4.97;;;4.67;;
7231;SDS011;3657;49.630;11.018;2022-11-23T14:20:15;4.77;;;4.43;;
7231;SDS011;3657;49.630;11.018;2022-11-23T14:22:53;4.83;;;4.53;;
7231;SDS011;3657;49.630;11.018;2022-11-23T14:25:38;5.67;;;5.13;;
7231;SDS011;3657;49.630;11.018;2022-11-23T14:28:17;5.50;;;5.00;;
7231;SDS011;3657;49.630;11.018;2022-11-23T14:31:01;4.50;;;4.20;;
7231;SDS011;3657;49.630;11.018;2022-11-23T14:33:39;5.70;;;5.20;;
7231;SDS011;3657;49.630;11.018;2022-11-23T14:36:17;5.30;;;4.93;;
7231;SDS011;3657;49.630;11.018;2022-11-23T14:41:58;6.30;;;6.00;;
7231;SDS011;3657;49.630;11.018;2022-11-23T14:44:28;5.67;;;5.37;;
7231;SDS011;3657;49.630;11.018;2022-11-23T14:46:59;5.97;;;5.60;;
7231;SDS011;3657;49.630;11.018;2022-11-23T14:49:26;4.90;;;4.70;;
7231;SDS011;3657;49.630;11.018;2022-11-23T14:51:55;6.57;;;6.17;;
7231;SDS011;3657;49.630;11.018;2022-11-23T14:54:22;6.33;;;6.03;;
7231;SDS011;3657;49.630;11.018;2022-11-23T14:56:49;6.97;;;6.40;;
7231;SDS011;3657;49.630;11.018;2022-11-23T14:59:19;7.93;;;7.53;;
7231;SDS011;3657;49.630;11.018;2022-11-23T15:01:49;8.20;;;7.87;;
7231;SDS011;3657;49.630;11.018;2022-11-23T15:04:22;5.60;;;5.40;;
7231;SDS011;3657;49.630;11.018;2022-11-23T15:06:50;5.13;;;4.93;;
7231;SDS011;3657;49.630;11.018;2022-11-23T15:09:26;5.27;;;4.97;;
7231;SDS011;3657;49.630;11.018;2022-11-23T15:12:19;6.20;;;5.90;;
7231;SDS011;3657;49.630;11.018;2022-11-23T15:14:48;6.93;;;6.40;;
7231;SDS011;3657;49.630;11.018;2022-11-23T15:17:16;7.73;;;7.30;;
7231;SDS011;3657;49.630;11.018;2022-11-23T15:19:51;6.43;;;6.13;;
7231;SDS011;3657;49.630;11.018;2022-11-23T15:22:19;10.97;;;8.97;;
7231;SDS011;3657;49.630;11.018;2022-11-23T15:24:49;9.97;;;9.27;;
7231;SDS011;3657;49.630;11.018;2022-11-23T15:27:18;6.50;;;6.10;;
7231;SDS011;3657;49.630;11.018;2022-11-23T15:29:50;7.33;;;6.80;;
7231;SDS011;3657;49.630;11.018;2022-11-23T15:32:19;8.83;;;8.13;;
7231;SDS011;3657;49.630;11.018;2022-11-23T15:34:51;6.67;;;6.17;;